sensor_id;sensor_type;location;lat;lon;timestamp;pressure;altitude;pressure_sealevel;temperature;humidity
56737;BME280;42618;51.226;4.910;2023-09-19T00:00:22;49711.06;;;-146.94;91.65
56737;BME280;42618;51.226;4.910;2023-09-19T00:02:58;49687.13;;;-146.94;91.25
56737;BME280;42618;51.226;4.910;2023-09-19T00:05:29;49675.19;;;-146.94;91.49
56737;BME280;42618;51.226;4.910;2023-09-19T00:07:57;49665.22;;;-146.94;91.62
56737;BME280;42618;51.226;4.910;2023-09-19T00:10:28;49687.13;;;-146.94;91.50
56737;BME280;42618;51.226;4.910;2023-09-19T00:12:58;49713.06;;;-146.94;91.69
56737;BME280;42618;51.226;4.910;2023-09-19T00:15:37;49740.97;;;-146.94;91.72
56737;BME280;42618;51.226;4.910;2023-09-19T00:18:05;49685.13;;;-146.94;91.38
56737;BME280;42618;51.226;4.910;2023-09-19T00:20:36;49723.03;;;-146.94;91.28
56737;BME280;42618;51.226;4.910;2023-09-19T00:23:03;49701.09;;;-146.94;91.43
56737;BME280;42618;51.226;4.910;2023-09-19T00:25:31;49711.06;;;-146.94;91.53
56737;BME280;42618;51.226;4.910;2023-09-19T00:27:59;49701.09;;;-146.94;91.43
56737;BME280;42618;51.226;4.910;2023-09-19T00:30:26;49687.13;;;-146.94;90.77
56737;BME280;42618;51.226;4.910;2023-09-19T00:32:53;49701.09;;;-146.94;90.46
56737;BME280;42618;51.226;4.910;2023-09-19T00:35:21;49683.16;;;-146.94;89.78
56737;BME280;42618;51.226;4.910;2023-09-19T00:37:51;49709.06;;;-146.94;89.02
56737;BME280;42618;51.226;4.910;2023-09-19T00:40:18;49711.06;;;-146.94;88.03
56737;BME280;42618;51.226;4.910;2023-09-19T00:42:46;49691.13;;;-146.94;88.19
56737;BME280;42618;51.226;4.910;2023-09-19T00:45:15;49709.06;;;-146.94;87.85
56737;BME280;42618;51.226;4.910;2023-09-19T00:47:48;49734.97;;;-146.94;87.12
56737;BME280;42618;51.226;4.910;2023-09-19T00:50:22;49691.13;;;-146.94;86.64
56737;BME280;42618;51.226;4.910;2023-09-19T00:52:50;49705.06;;;-146.94;85.94
56737;BME280;42618;51.226;4.910;2023-09-19T00:55:20;49695.09;;;-146.94;86.12
56737;BME280;42618;51.226;4.910;2023-09-19T00:57:47;49707.06;;;-146.94;85.61
56737;BME280;42618;51.226;4.910;2023-09-19T01:00:17;49742.94;;;-146.94;85.18
56737;BME280;42618;51.226;4.910;2023-09-19T01:02:46;49681.16;;;-146.94;85.22
56737;BME280;42618;51.226;4.910;2023-09-19T01:05:13;49691.13;;;-146.94;84.73
56737;BME280;42618;51.226;4.910;2023-09-19T01:07:41;49719.03;;;-146.94;84.12
56737;BME280;42618;51.226;4.910;2023-09-19T01:10:10;49711.06;;;-146.94;83.16
56737;BME280;42618;51.226;4.910;2023-09-19T01:13:43;49721.03;;;-146.94;82.26
56737;BME280;42618;51.226;4.910;2023-09-19T01:18:43;49717.03;;;-146.94;81.53
56737;BME280;42618;51.226;4.910;2023-09-19T01:21:39;49677.16;;;-146.94;81.04
56737;BME280;42618;51.226;4.910;2023-09-19T01:29:48;49681.16;;;-146.94;80.56
56737;BME280;42618;51.226;4.910;2023-09-19T01:32:17;49669.19;;;-146.94;80.87
56737;BME280;42618;51.226;4.910;2023-09-19T01:34:51;49734.97;;;-146.94;80.96
56737;BME280;42618;51.226;4.910;2023-09-19T01:37:21;49707.06;;;-146.94;80.79
56737;BME280;42618;51.226;4.910;2023-09-19T01:45:13;49677.16;;;-146.94;80.99
56737;BME280;42618;51.226;4.910;2023-09-19T01:47:47;49679.16;;;-146.94;80.79
56737;BME280;42618;51.226;4.910;2023-09-19T01:52:57;49746.94;;;-146.94;81.51
56737;BME280;42618;51.226;4.910;2023-09-19T01:55:26;49679.16;;;-146.94;81.53
56737;BME280;42618;51.226;4.910;2023-09-19T01:58:04;49705.06;;;-146.94;81.93
56737;BME280;42618;51.226;4.910;2023-09-19T02:00:36;49713.06;;;-146.94;82.27
56737;BME280;42618;51.226;4.910;2023-09-19T02:03:04;49734.97;;;-146.94;82.72
56737;BME280;42618;51.226;4.910;2023-09-19T02:05:31;49695.09;;;-146.94;82.92
56737;BME280;42618;51.226;4.910;2023-09-19T02:07:59;49727.00;;;-146.94;83.53
56737;BME280;42618;51.226;4.910;2023-09-19T02:10:27;49685.13;;;-146.94;84.03
56737;BME280;42618;51.226;4.910;2023-09-19T02:12:54;49689.13;;;-146.94;84.46
56737;BME280;42618;51.226;4.910;2023-09-19T02:15:20;49744.94;;;-146.94;85.69
56737;BME280;42618;51.226;4.910;2023-09-19T02:17:48;49715.03;;;-146.94;86.16
56737;BME280;42618;51.226;4.910;2023-09-19T02:20:15;49711.06;;;-146.94;86.43
56737;BME280;42618;51.226;4.910;2023-09-19T02:22:43;49715.03;;;-146.94;86.62
56737;BME280;42618;51.226;4.910;2023-09-19T02:25:11;49734.97;;;-146.94;86.72
56737;BME280;42618;51.226;4.910;2023-09-19T02:27:37;49721.03;;;-146.94;86.06
56737;BME280;42618;51.226;4.910;2023-09-19T02:30:06;49669.19;;;-146.94;86.93
56737;BME280;42618;51.226;4.910;2023-09-19T02:32:33;49671.19;;;-146.94;86.86
56737;BME280;42618;51.226;4.910;2023-09-19T02:35:03;49717.03;;;-146.94;87.32
56737;BME280;42618;51.226;4.910;2023-09-19T02:37:31;49752.91;;;-146.94;87.17
56737;BME280;42618;51.226;4.910;2023-09-19T02:39:58;49707.06;;;-146.94;86.65
56737;BME280;42618;51.226;4.910;2023-09-19T02:42:25;49709.06;;;-146.94;87.15
56737;BME280;42618;51.226;4.910;2023-09-19T02:44:51;49699.09;;;-146.94;87.49
56737;BME280;42618;51.226;4.910;2023-09-19T02:47:18;49715.03;;;-146.94;86.69
56737;BME280;42618;51.226;4.910;2023-09-19T02:49:46;49685.13;;;-146.94;87.27
56737;BME280;42618;51.226;4.910;2023-09-19T02:52:13;49695.09;;;-146.94;87.20
56737;BME280;42618;51.226;4.910;2023-09-19T02:54:41;49713.06;;;-146.94;87.29
56737;BME280;42618;51.226;4.910;2023-09-19T02:57:11;49715.03;;;-146.94;87.22
56737;BME280;42618;51.226;4.910;2023-09-19T02:59:41;49695.09;;;-146.94;87.70
56737;BME280;42618;51.226;4.910;2023-09-19T03:02:08;49721.03;;;-146.94;87.63
56737;BME280;42618;51.226;4.910;2023-09-19T03:04:36;49731.00;;;-146.94;88.03
56737;BME280;42618;51.226;4.910;2023-09-19T03:07:04;49677.16;;;-146.94;87.51
56737;BME280;42618;51.226;4.910;2023-09-19T03:09:30;49699.09;;;-146.94;86.87
56737;BME280;42618;51.226;4.910;2023-09-19T03:11:57;49725.00;;;-146.94;86.87
56737;BME280;42618;51.226;4.910;2023-09-19T03:14:26;49663.22;;;-146.94;87.48
56737;BME280;42618;51.226;4.910;2023-09-19T03:16:58;49681.16;;;-146.94;86.89
56737;BME280;42618;51.226;4.910;2023-09-19T03:19:26;49687.13;;;-146.94;86.20
56737;BME280;42618;51.226;4.910;2023-09-19T03:21:54;49705.06;;;-146.94;85.88
56737;BME280;42618;51.226;4.910;2023-09-19T03:24:23;49715.03;;;-146.94;85.51
56737;BME280;42618;51.226;4.910;2023-09-19T03:26:50;49705.06;;;-146.94;85.49
56737;BME280;42618;51.226;4.910;2023-09-19T03:29:17;49693.13;;;-146.94;85.49
56737;BME280;42618;51.226;4.910;2023-09-19T03:31:45;49742.94;;;-146.94;85.16
56737;BME280;42618;51.226;4.910;2023-09-19T03:34:12;49697.09;;;-146.94;84.79
56737;BME280;42618;51.226;4.910;2023-09-19T03:36:39;49725.00;;;-146.94;84.47
56737;BME280;42618;51.226;4.910;2023-09-19T03:39:08;49689.13;;;-146.94;84.50
56737;BME280;42618;51.226;4.910;2023-09-19T03:41:34;49742.94;;;-146.94;84.42
56737;BME280;42618;51.226;4.910;2023-09-19T03:44:03;49687.13;;;-146.94;83.84
56737;BME280;42618;51.226;4.910;2023-09-19T03:46:31;49727.00;;;-146.94;84.22
56737;BME280;42618;51.226;4.910;2023-09-19T03:48:59;49691.13;;;-146.94;83.80
56737;BME280;42618;51.226;4.910;2023-09-19T03:51:26;49675.19;;;-146.94;83.37
56737;BME280;42618;51.226;4.910;2023-09-19T03:53:53;49671.19;;;-146.94;83.76
56737;BME280;42618;51.226;4.910;2023-09-19T03:56:20;49727.00;;;-146.94;83.43
56737;BME280;42618;51.226;4.910;2023-09-19T03:58:46;49693.13;;;-146.94;83.45
56737;BME280;42618;51.226;4.910;2023-09-19T04:01:14;49742.94;;;-146.94;83.21
56737;BME280;42618;51.226;4.910;2023-09-19T04:03:41;49703.09;;;-146.94;82.64
56737;BME280;42618;51.226;4.910;2023-09-19T04:06:15;49707.06;;;-146.94;82.93
56737;BME280;42618;51.226;4.910;2023-09-19T04:08:43;49707.06;;;-146.94;82.75
56737;BME280;42618;51.226;4.910;2023-09-19T04:11:11;49709.06;;;-146.94;82.63
56737;BME280;42618;51.226;4.910;2023-09-19T04:13:38;49685.13;;;-146.94;82.27
56737;BME280;42618;51.226;4.910;2023-09-19T04:16:05;49719.03;;;-146.94;82.59
56737;BME280;42618;51.226;4.910;2023-09-19T04:18:36;49719.03;;;-146.94;82.31
56737;BME280;42618;51.226;4.910;2023-09-19T04:21:05;49707.06;;;-146.94;83.05
56737;BME280;42618;51.226;4.910;2023-09-19T04:23:33;49719.03;;;-146.94;82.93
56737;BME280;42618;51.226;4.910;2023-09-19T04:25:59;49691.13;;;-146.94;83.08
56737;BME280;42618;51.226;4.910;2023-09-19T04:28:26;49679.16;;;-146.94;82.95
56737;BME280;42618;51.226;4.910;2023-09-19T04:30:54;49687.13;;;-146.94;82.97
56737;BME280;42618;51.226;4.910;2023-09-19T04:33:21;49701.09;;;-146.94;83.37
56737;BME280;42618;51.226;4.910;2023-09-19T04:35:49;49697.09;;;-146.94;83.11
56737;BME280;42618;51.226;4.910;2023-09-19T04:38:20;49695.09;;;-146.94;83.58
56737;BME280;42618;51.226;4.910;2023-09-19T04:40:47;49703.09;;;-146.94;83.29
56737;BME280;42618;51.226;4.910;2023-09-19T04:43:14;49715.03;;;-146.94;84.54
56737;BME280;42618;51.226;4.910;2023-09-19T04:45:42;49667.19;;;-146.94;85.39
56737;BME280;42618;51.226;4.910;2023-09-19T04:48:09;49675.19;;;-146.94;85.96
56737;BME280;42618;51.226;4.910;2023-09-19T04:50:35;49695.09;;;-146.94;86.78
56737;BME280;42618;51.226;4.910;2023-09-19T04:53:03;49719.03;;;-146.94;87.04
56737;BME280;42618;51.226;4.910;2023-09-19T04:55:31;49707.06;;;-146.94;87.43
56737;BME280;42618;51.226;4.910;2023-09-19T04:57:59;49679.16;;;-146.94;88.18
56737;BME280;42618;51.226;4.910;2023-09-19T05:00:26;49695.09;;;-146.94;88.45
56737;BME280;42618;51.226;4.910;2023-09-19T05:02:56;49705.06;;;-146.94;89.02
56737;BME280;42618;51.226;4.910;2023-09-19T05:05:24;49683.16;;;-146.94;89.78
56737;BME280;42618;51.226;4.910;2023-09-19T05:07:51;49719.03;;;-146.94;90.38
56737;BME280;42618;51.226;4.910;2023-09-19T05:10:20;49691.13;;;-146.94;90.12
56737;BME280;42618;51.226;4.910;2023-09-19T05:12:47;49711.06;;;-146.94;90.50
56737;BME280;42618;51.226;4.910;2023-09-19T05:15:15;49736.97;;;-146.94;90.73
56737;BME280;42618;51.226;4.910;2023-09-19T05:17:52;49707.06;;;-146.94;90.77
56737;BME280;42618;51.226;4.910;2023-09-19T05:20:24;49695.09;;;-146.94;90.90
56737;BME280;42618;51.226;4.910;2023-09-19T05:23:03;49723.03;;;-146.94;91.33
56737;BME280;42618;51.226;4.910;2023-09-19T05:25:32;49705.06;;;-146.94;91.66
56737;BME280;42618;51.226;4.910;2023-09-19T05:27:59;49721.03;;;-146.94;92.32
56737;BME280;42618;51.226;4.910;2023-09-19T05:30:30;49679.16;;;-146.94;91.45
56737;BME280;42618;51.226;4.910;2023-09-19T05:32:56;49740.97;;;-146.94;92.40
56737;BME280;42618;51.226;4.910;2023-09-19T05:35:24;49731.00;;;-146.94;92.31
56737;BME280;42618;51.226;4.910;2023-09-19T05:37:52;49685.13;;;-146.94;92.67
56737;BME280;42618;51.226;4.910;2023-09-19T05:40:19;49707.06;;;-146.94;92.56
56737;BME280;42618;51.226;4.910;2023-09-19T05:42:47;49689.13;;;-146.94;92.86
56737;BME280;42618;51.226;4.910;2023-09-19T05:45:13;49750.94;;;-146.94;92.85
56737;BME280;42618;51.226;4.910;2023-09-19T05:47:41;49750.94;;;-146.94;92.23
56737;BME280;42618;51.226;4.910;2023-09-19T05:50:12;49707.06;;;-146.94;91.88
56737;BME280;42618;51.226;4.910;2023-09-19T05:52:39;49671.19;;;-146.94;92.18
56737;BME280;42618;51.226;4.910;2023-09-19T05:55:06;49723.03;;;-146.94;92.52
56737;BME280;42618;51.226;4.910;2023-09-19T05:57:34;49695.09;;;-146.94;92.09
56737;BME280;42618;51.226;4.910;2023-09-19T06:00:01;49685.13;;;-146.94;91.88
56737;BME280;42618;51.226;4.910;2023-09-19T06:02:37;49725.00;;;-146.94;92.43
56737;BME280;42618;51.226;4.910;2023-09-19T06:05:05;49703.09;;;-146.94;92.22
56737;BME280;42618;51.226;4.910;2023-09-19T06:07:38;49689.13;;;-146.94;91.93
56737;BME280;42618;51.226;4.910;2023-09-19T06:10:05;49711.06;;;-146.94;91.71
56737;BME280;42618;51.226;4.910;2023-09-19T06:12:38;49685.13;;;-146.94;91.68
56737;BME280;42618;51.226;4.910;2023-09-19T06:15:05;49693.13;;;-146.94;92.17
56737;BME280;42618;51.226;4.910;2023-09-19T06:17:32;49687.13;;;-146.94;91.10
56737;BME280;42618;51.226;4.910;2023-09-19T06:19:59;49687.13;;;-146.94;91.24
56737;BME280;42618;51.226;4.910;2023-09-19T06:22:26;49707.06;;;-146.94;91.40
56737;BME280;42618;51.226;4.910;2023-09-19T06:24:53;49689.13;;;-146.94;91.18
56737;BME280;42618;51.226;4.910;2023-09-19T06:27:19;49683.16;;;-146.94;90.98
56737;BME280;42618;51.226;4.910;2023-09-19T06:29:49;49659.22;;;-146.94;90.97
56737;BME280;42618;51.226;4.910;2023-09-19T06:32:15;49677.16;;;-146.94;91.23
56737;BME280;42618;51.226;4.910;2023-09-19T06:34:42;49727.00;;;-146.94;90.63
56737;BME280;42618;51.226;4.910;2023-09-19T06:37:10;49683.16;;;-146.94;90.31
56737;BME280;42618;51.226;4.910;2023-09-19T06:39:37;49683.16;;;-146.94;90.60
56737;BME280;42618;51.226;4.910;2023-09-19T06:42:04;49667.19;;;-146.94;90.08
56737;BME280;42618;51.226;4.910;2023-09-19T06:44:31;49705.06;;;-146.94;90.42
56737;BME280;42618;51.226;4.910;2023-09-19T06:46:58;49715.03;;;-146.94;89.82
56737;BME280;42618;51.226;4.910;2023-09-19T06:49:25;49721.03;;;-146.94;89.72
56737;BME280;42618;51.226;4.910;2023-09-19T06:51:54;49693.13;;;-146.94;89.67
56737;BME280;42618;51.226;4.910;2023-09-19T06:54:21;49669.19;;;-146.94;89.05
56737;BME280;42618;51.226;4.910;2023-09-19T06:56:48;49675.19;;;-146.94;89.04
56737;BME280;42618;51.226;4.910;2023-09-19T06:59:14;49717.03;;;-146.94;88.50
56737;BME280;42618;51.226;4.910;2023-09-19T07:01:41;49667.19;;;-146.94;88.57
56737;BME280;42618;51.226;4.910;2023-09-19T07:04:11;49713.06;;;-146.94;88.37
56737;BME280;42618;51.226;4.910;2023-09-19T07:06:39;49697.09;;;-146.94;88.30
56737;BME280;42618;51.226;4.910;2023-09-19T07:09:08;49683.16;;;-146.94;87.50
56737;BME280;42618;51.226;4.910;2023-09-19T07:11:36;49683.16;;;-146.94;87.04
56737;BME280;42618;51.226;4.910;2023-09-19T07:14:03;49707.06;;;-146.94;86.70
56737;BME280;42618;51.226;4.910;2023-09-19T07:16:32;49675.19;;;-146.94;86.65
56737;BME280;42618;51.226;4.910;2023-09-19T07:18:59;49671.19;;;-146.94;86.12
56737;BME280;42618;51.226;4.910;2023-09-19T07:21:25;49715.03;;;-146.94;86.08
56737;BME280;42618;51.226;4.910;2023-09-19T07:23:52;49689.13;;;-146.94;85.25
56737;BME280;42618;51.226;4.910;2023-09-19T07:26:19;49687.13;;;-146.94;85.08
56737;BME280;42618;51.226;4.910;2023-09-19T07:28:46;49701.09;;;-146.94;85.23
56737;BME280;42618;51.226;4.910;2023-09-19T07:31:13;49681.16;;;-146.94;84.82
56737;BME280;42618;51.226;4.910;2023-09-19T07:33:40;49709.06;;;-146.94;84.63
56737;BME280;42618;51.226;4.910;2023-09-19T07:36:10;49673.19;;;-146.94;84.35
56737;BME280;42618;51.226;4.910;2023-09-19T07:38:37;49689.13;;;-146.94;84.26
56737;BME280;42618;51.226;4.910;2023-09-19T07:41:04;49679.16;;;-146.94;84.78
56737;BME280;42618;51.226;4.910;2023-09-19T07:43:31;49683.16;;;-146.94;83.92
56737;BME280;42618;51.226;4.910;2023-09-19T07:46:07;49689.13;;;-146.94;84.19
56737;BME280;42618;51.226;4.910;2023-09-19T07:48:35;49661.22;;;-146.94;83.61
56737;BME280;42618;51.226;4.910;2023-09-19T07:51:08;49675.19;;;-146.94;83.55
56737;BME280;42618;51.226;4.910;2023-09-19T07:53:35;49697.09;;;-146.94;84.23
56737;BME280;42618;51.226;4.910;2023-09-19T07:56:07;49691.13;;;-146.94;83.48
56737;BME280;42618;51.226;4.910;2023-09-19T07:58:34;49659.22;;;-146.94;83.92
56737;BME280;42618;51.226;4.910;2023-09-19T08:01:05;49663.22;;;-146.94;83.70
56737;BME280;42618;51.226;4.910;2023-09-19T08:03:32;49715.03;;;-146.94;83.09
56737;BME280;42618;51.226;4.910;2023-09-19T08:06:00;49675.19;;;-146.94;82.78
56737;BME280;42618;51.226;4.910;2023-09-19T08:08:27;49671.19;;;-146.94;81.88
56737;BME280;42618;51.226;4.910;2023-09-19T08:10:55;49689.13;;;-146.94;82.13
56737;BME280;42618;51.226;4.910;2023-09-19T08:13:25;49665.22;;;-146.94;83.02
56737;BME280;42618;51.226;4.910;2023-09-19T08:15:52;49645.28;;;-146.94;82.37
56737;BME280;42618;51.226;4.910;2023-09-19T08:18:22;49659.22;;;-146.94;81.45
56737;BME280;42618;51.226;4.910;2023-09-19T08:20:50;49661.22;;;-146.94;80.91
56737;BME280;42618;51.226;4.910;2023-09-19T08:23:18;49655.25;;;-146.94;81.20
56737;BME280;42618;51.226;4.910;2023-09-19T08:25:47;49663.22;;;-146.94;81.13
56737;BME280;42618;51.226;4.910;2023-09-19T08:28:14;49681.16;;;-146.94;79.42
56737;BME280;42618;51.226;4.910;2023-09-19T08:30:45;49675.19;;;-146.94;79.61
56737;BME280;42618;51.226;4.910;2023-09-19T08:33:12;49649.25;;;-146.94;80.40
56737;BME280;42618;51.226;4.910;2023-09-19T08:35:41;49687.13;;;-146.94;80.05
56737;BME280;42618;51.226;4.910;2023-09-19T08:38:09;49655.25;;;-146.94;78.78
56737;BME280;42618;51.226;4.910;2023-09-19T08:40:40;49683.16;;;-146.94;78.80
56737;BME280;42618;51.226;4.910;2023-09-19T08:43:08;49691.13;;;-146.94;78.07
56737;BME280;42618;51.226;4.910;2023-09-19T08:45:35;49659.22;;;-146.94;77.55
56737;BME280;42618;51.226;4.910;2023-09-19T08:53:40;49657.22;;;-146.94;76.78
56737;BME280;42618;51.226;4.910;2023-09-19T08:56:10;49671.19;;;-146.94;75.17
56737;BME280;42618;51.226;4.910;2023-09-19T08:59:26;49631.31;;;-146.94;75.12
56737;BME280;42618;51.226;4.910;2023-09-19T09:01:28;49661.22;;;-146.94;75.52
56737;BME280;42618;51.226;4.910;2023-09-19T09:03:56;49663.22;;;-146.94;75.95
56737;BME280;42618;51.226;4.910;2023-09-19T09:06:25;49691.13;;;-146.94;75.10
56737;BME280;42618;51.226;4.910;2023-09-19T09:08:51;49655.25;;;-146.94;75.45
56737;BME280;42618;51.226;4.910;2023-09-19T09:11:19;49629.31;;;-146.94;75.62
56737;BME280;42618;51.226;4.910;2023-09-19T09:13:47;49677.16;;;-146.94;76.30
56737;BME280;42618;51.226;4.910;2023-09-19T09:16:14;49655.25;;;-146.94;76.36
56737;BME280;42618;51.226;4.910;2023-09-19T09:18:46;49663.22;;;-146.94;75.95
56737;BME280;42618;51.226;4.910;2023-09-19T09:21:19;49675.19;;;-146.94;75.97
56737;BME280;42618;51.226;4.910;2023-09-19T09:23:49;49661.22;;;-146.94;75.75
56737;BME280;42618;51.226;4.910;2023-09-19T09:29:05;49651.25;;;-146.94;75.71
56737;BME280;42618;51.226;4.910;2023-09-19T09:31:32;49661.22;;;-146.94;76.08
56737;BME280;42618;51.226;4.910;2023-09-19T09:33:59;49663.22;;;-146.94;76.90
56737;BME280;42618;51.226;4.910;2023-09-19T09:36:39;49663.22;;;-146.94;75.74
56737;BME280;42618;51.226;4.910;2023-09-19T09:39:08;49703.09;;;-146.94;75.27
56737;BME280;42618;51.226;4.910;2023-09-19T09:41:52;49639.28;;;-146.94;74.08
56737;BME280;42618;51.226;4.910;2023-09-19T09:44:18;49669.19;;;-146.94;73.90
56737;BME280;42618;51.226;4.910;2023-09-19T09:46:47;49621.34;;;-146.94;74.61
56737;BME280;42618;51.226;4.910;2023-09-19T09:49:24;49665.22;;;-146.94;74.05
56737;BME280;42618;51.226;4.910;2023-09-19T09:52:03;49657.22;;;-146.94;74.38
56737;BME280;42618;51.226;4.910;2023-09-19T09:54:37;49659.22;;;-146.94;72.09
56737;BME280;42618;51.226;4.910;2023-09-19T09:57:08;49619.34;;;-146.94;72.62
56737;BME280;42618;51.226;4.910;2023-09-19T09:59:48;49627.31;;;-146.94;71.04
56737;BME280;42618;51.226;4.910;2023-09-19T10:02:26;49641.28;;;-146.94;70.81
56737;BME280;42618;51.226;4.910;2023-09-19T10:04:56;49641.28;;;-146.94;70.03
56737;BME280;42618;51.226;4.910;2023-09-19T10:07:36;49637.28;;;-146.94;68.20
56737;BME280;42618;51.226;4.910;2023-09-19T10:10:10;49631.31;;;-146.94;67.33
56737;BME280;42618;51.226;4.910;2023-09-19T10:12:45;49621.34;;;-146.94;67.26
56737;BME280;42618;51.226;4.910;2023-09-19T10:15:16;49623.34;;;-146.94;64.17
56737;BME280;42618;51.226;4.910;2023-09-19T10:17:44;49647.25;;;-146.94;64.33
56737;BME280;42618;51.226;4.910;2023-09-19T10:20:13;49647.25;;;-146.94;63.17
56737;BME280;42618;51.226;4.910;2023-09-19T10:23:00;49625.34;;;-146.94;62.73
56737;BME280;42618;51.226;4.910;2023-09-19T10:25:27;49651.25;;;-146.94;62.83
56737;BME280;42618;51.226;4.910;2023-09-19T10:28:00;49625.34;;;-146.94;61.75
56737;BME280;42618;51.226;4.910;2023-09-19T10:30:37;49635.31;;;-146.94;60.74
56737;BME280;42618;51.226;4.910;2023-09-19T10:33:08;49615.38;;;-146.94;59.64
56737;BME280;42618;51.226;4.910;2023-09-19T10:35:37;49641.28;;;-146.94;58.74
56737;BME280;42618;51.226;4.910;2023-09-19T10:38:07;49663.22;;;-146.94;58.97
56737;BME280;42618;51.226;4.910;2023-09-19T10:40:37;49607.41;;;-146.94;56.64
56737;BME280;42618;51.226;4.910;2023-09-19T10:43:11;49615.38;;;-146.94;56.69
56737;BME280;42618;51.226;4.910;2023-09-19T10:45:40;49615.38;;;-146.94;55.00
56737;BME280;42618;51.226;4.910;2023-09-19T10:48:07;49613.38;;;-146.94;54.52
56737;BME280;42618;51.226;4.910;2023-09-19T10:50:43;49605.41;;;-146.94;54.40
56737;BME280;42618;51.226;4.910;2023-09-19T10:53:13;49609.38;;;-146.94;53.30
56737;BME280;42618;51.226;4.910;2023-09-19T10:55:49;49639.28;;;-146.94;54.01
56737;BME280;42618;51.226;4.910;2023-09-19T10:58:27;49595.44;;;-146.94;53.46
56737;BME280;42618;51.226;4.910;2023-09-19T11:01:01;49603.41;;;-146.94;52.96
56737;BME280;42618;51.226;4.910;2023-09-19T11:03:39;49567.53;;;-146.94;52.32
56737;BME280;42618;51.226;4.910;2023-09-19T11:06:17;49619.34;;;-146.94;52.98
56737;BME280;42618;51.226;4.910;2023-09-19T11:08:59;49611.38;;;-146.94;53.95
56737;BME280;42618;51.226;4.910;2023-09-19T11:11:46;49595.44;;;-146.94;53.61
56737;BME280;42618;51.226;4.910;2023-09-19T11:30:50;49595.44;;;-146.94;55.67
56737;BME280;42618;51.226;4.910;2023-09-19T11:33:23;49603.41;;;-146.94;54.51
56737;BME280;42618;51.226;4.910;2023-09-19T11:43:49;49613.38;;;-146.94;55.24
56737;BME280;42618;51.226;4.910;2023-09-19T11:46:21;49587.47;;;-146.94;54.23
56737;BME280;42618;51.226;4.910;2023-09-19T11:48:49;49603.41;;;-146.94;52.80
56737;BME280;42618;51.226;4.910;2023-09-19T11:51:18;49593.44;;;-146.94;53.37
56737;BME280;42618;51.226;4.910;2023-09-19T11:53:56;49621.34;;;-146.94;53.57
56737;BME280;42618;51.226;4.910;2023-09-19T11:56:24;49585.47;;;-146.94;53.86
56737;BME280;42618;51.226;4.910;2023-09-19T11:58:55;49603.41;;;-146.94;53.41
56737;BME280;42618;51.226;4.910;2023-09-19T12:01:29;49633.31;;;-146.94;54.76
56737;BME280;42618;51.226;4.910;2023-09-19T12:03:58;49643.28;;;-146.94;54.16
56737;BME280;42618;51.226;4.910;2023-09-19T12:06:27;49611.38;;;-146.94;53.20
56737;BME280;42618;51.226;4.910;2023-09-19T12:08:53;49603.41;;;-146.94;55.23
56737;BME280;42618;51.226;4.910;2023-09-19T12:11:30;49611.38;;;-146.94;56.00
56737;BME280;42618;51.226;4.910;2023-09-19T12:14:01;49635.31;;;-146.94;55.70
56737;BME280;42618;51.226;4.910;2023-09-19T12:16:28;49589.44;;;-146.94;56.49
56737;BME280;42618;51.226;4.910;2023-09-19T12:19:17;49633.31;;;-146.94;56.34
56737;BME280;42618;51.226;4.910;2023-09-19T12:22:03;49627.31;;;-146.94;57.03
56737;BME280;42618;51.226;4.910;2023-09-19T12:24:33;49591.44;;;-146.94;55.75
56737;BME280;42618;51.226;4.910;2023-09-19T12:27:03;49633.31;;;-146.94;56.24
56737;BME280;42618;51.226;4.910;2023-09-19T12:29:44;49607.41;;;-146.94;55.78
56737;BME280;42618;51.226;4.910;2023-09-19T12:32:11;49611.38;;;-146.94;56.45
56737;BME280;42618;51.226;4.910;2023-09-19T12:34:38;49617.38;;;-146.94;56.74
56737;BME280;42618;51.226;4.910;2023-09-19T12:37:12;49637.28;;;-146.94;56.55
56737;BME280;42618;51.226;4.910;2023-09-19T12:39:51;49627.31;;;-146.94;55.11
56737;BME280;42618;51.226;4.910;2023-09-19T12:42:24;49647.25;;;-146.94;55.05
56737;BME280;42618;51.226;4.910;2023-09-19T12:44:55;49605.41;;;-146.94;55.21
56737;BME280;42618;51.226;4.910;2023-09-19T12:47:24;49587.47;;;-146.94;56.78
56737;BME280;42618;51.226;4.910;2023-09-19T12:52:52;49591.44;;;-146.94;55.53
56737;BME280;42618;51.226;4.910;2023-09-19T12:55:28;49619.34;;;-146.94;55.28
56737;BME280;42618;51.226;4.910;2023-09-19T12:58:22;49609.38;;;-146.94;55.80
56737;BME280;42618;51.226;4.910;2023-09-19T13:00:46;49641.28;;;-146.94;58.19
56737;BME280;42618;51.226;4.910;2023-09-19T13:03:25;49613.38;;;-146.94;58.67
56737;BME280;42618;51.226;4.910;2023-09-19T13:05:57;49579.47;;;-146.94;58.65
56737;BME280;42618;51.226;4.910;2023-09-19T13:08:30;49653.25;;;-146.94;59.69
56737;BME280;42618;51.226;4.910;2023-09-19T13:11:13;49635.31;;;-146.94;60.18
56737;BME280;42618;51.226;4.910;2023-09-19T13:13:49;49635.31;;;-146.94;60.14
56737;BME280;42618;51.226;4.910;2023-09-19T13:16:20;49621.34;;;-146.94;60.12
56737;BME280;42618;51.226;4.910;2023-09-19T13:18:53;49615.38;;;-146.94;59.62
56737;BME280;42618;51.226;4.910;2023-09-19T13:21:33;49639.28;;;-146.94;59.53
56737;BME280;42618;51.226;4.910;2023-09-19T13:24:24;49659.22;;;-146.94;59.18
56737;BME280;42618;51.226;4.910;2023-09-19T13:26:54;49621.34;;;-146.94;59.75
56737;BME280;42618;51.226;4.910;2023-09-19T13:29:22;49643.28;;;-146.94;59.90
56737;BME280;42618;51.226;4.910;2023-09-19T13:31:50;49619.34;;;-146.94;58.72
56737;BME280;42618;51.226;4.910;2023-09-19T13:34:17;49607.41;;;-146.94;59.24
56737;BME280;42618;51.226;4.910;2023-09-19T13:36:44;49617.38;;;-146.94;58.84
56737;BME280;42618;51.226;4.910;2023-09-19T13:39:11;49631.31;;;-146.94;59.25
56737;BME280;42618;51.226;4.910;2023-09-19T13:41:47;49607.41;;;-146.94;59.78
56737;BME280;42618;51.226;4.910;2023-09-19T13:44:14;49609.38;;;-146.94;60.65
56737;BME280;42618;51.226;4.910;2023-09-19T13:46:43;49629.31;;;-146.94;60.96